createdAt,value
2019-01-25T00:01:04.946Z,94.70
2019-01-25T00:03:52.975Z,94.60
2019-01-25T00:06:40.727Z,94.40
2019-01-25T00:09:28.737Z,94.70
2019-01-25T00:12:16.207Z,94.60
2019-01-25T00:15:06.301Z,94.40
2019-01-25T00:17:54.268Z,94.30
2019-01-25T00:20:41.741Z,94.60
2019-01-25T00:23:29.752Z,94.70
2019-01-25T00:26:17.532Z,94.90
2019-01-25T00:29:05.816Z,94.80
2019-01-25T00:31:53.811Z,94.90
2019-01-25T00:34:41.783Z,94.80
2019-01-25T00:37:29.802Z,95.10
2019-01-25T00:40:18.496Z,94.90
2019-01-25T00:43:06.170Z,95.10
2019-01-25T00:45:53.593Z,95.60
2019-01-25T00:48:41.210Z,95.90
2019-01-25T00:51:28.841Z,96.00
2019-01-25T00:54:16.525Z,95.50
2019-01-25T00:57:04.624Z,95.60
2019-01-25T00:59:52.577Z,95.70
2019-01-25T01:02:40.660Z,95.30
2019-01-25T01:05:28.038Z,95.20
2019-01-25T01:08:16.097Z,95.20
2019-01-25T01:11:04.013Z,95.00
2019-01-25T01:13:51.407Z,94.80
2019-01-25T01:16:39.036Z,94.80
2019-01-25T01:19:26.820Z,94.70
2019-01-25T01:22:15.029Z,94.50
2019-01-25T01:25:02.585Z,94.20
2019-01-25T01:27:50.145Z,94.30
2019-01-25T01:30:37.822Z,94.50
2019-01-25T01:33:25.945Z,94.60
2019-01-25T01:36:13.614Z,94.90
2019-01-25T01:39:01.564Z,95.00
2019-01-25T01:41:49.413Z,95.30
2019-01-25T01:44:41.570Z,94.70
2019-01-25T01:47:29.385Z,95.30
2019-01-25T01:50:17.619Z,95.40
2019-01-25T01:53:05.458Z,95.70
2019-01-25T01:55:53.242Z,95.50
2019-01-25T01:58:41.120Z,95.60
2019-01-25T02:01:29.249Z,95.50
2019-01-25T02:04:17.034Z,95.40
2019-01-25T02:07:04.642Z,94.20
2019-01-25T02:09:52.818Z,94.10
2019-01-25T02:12:40.786Z,94.20
2019-01-25T02:15:28.486Z,93.50
2019-01-25T02:18:16.165Z,93.80
2019-01-25T02:21:05.680Z,94.00
2019-01-25T02:23:53.319Z,94.10
2019-01-25T02:26:41.200Z,94.20
2019-01-25T02:29:29.083Z,94.20
2019-01-25T02:32:17.389Z,94.50
2019-01-25T02:35:05.637Z,94.70
2019-01-25T02:37:53.600Z,94.40
2019-01-25T02:40:42.095Z,94.50
2019-01-25T02:43:29.814Z,94.70
2019-01-25T02:46:17.579Z,94.60
2019-01-25T02:49:05.265Z,94.50
2019-01-25T02:51:53.173Z,95.00
2019-01-25T02:54:41.108Z,95.20
2019-01-25T02:57:28.425Z,95.20
2019-01-25T03:00:21.514Z,95.30
2019-01-25T03:03:09.136Z,95.20
2019-01-25T03:05:56.826Z,94.70
2019-01-25T03:08:46.602Z,94.80
2019-01-25T03:11:35.010Z,94.40
2019-01-25T03:14:22.971Z,94.10
2019-01-25T03:17:11.072Z,94.50
2019-01-25T03:19:59.315Z,94.40
2019-01-25T03:22:47.161Z,94.10
2019-01-25T03:25:34.944Z,94.50
2019-01-25T03:28:23.141Z,94.60
2019-01-25T03:31:11.291Z,94.90
2019-01-25T03:33:59.366Z,94.70
2019-01-25T03:36:47.165Z,94.90
2019-01-25T03:39:35.191Z,94.80
2019-01-25T03:42:22.928Z,95.10
2019-01-25T03:45:11.371Z,95.00
2019-01-25T03:47:59.236Z,94.90
2019-01-25T03:50:46.903Z,94.80
2019-01-25T03:53:35.312Z,94.60
2019-01-25T03:56:22.882Z,94.70
2019-01-25T03:59:10.764Z,95.00
2019-01-25T04:01:59.129Z,94.50
2019-01-25T04:04:47.056Z,94.40
2019-01-25T04:07:34.696Z,94.70
2019-01-25T04:10:24.416Z,94.40
2019-01-25T04:13:12.486Z,94.60
2019-01-25T04:16:00.565Z,94.80
2019-01-25T04:18:48.772Z,95.10
2019-01-25T04:21:36.485Z,95.10
2019-01-25T04:24:24.413Z,95.10
2019-01-25T04:27:12.264Z,94.90
2019-01-25T04:30:00.284Z,94.40
2019-01-25T04:32:48.022Z,94.70
2019-01-25T04:35:35.840Z,94.30
2019-01-25T04:38:23.823Z,94.40
2019-01-25T04:41:12.116Z,94.60
2019-01-25T04:44:00.095Z,94.50
2019-01-25T04:46:48.140Z,94.50
2019-01-25T04:49:39.738Z,94.40
2019-01-25T04:52:27.743Z,94.20
2019-01-25T04:55:21.926Z,94.50
2019-01-25T04:58:15.242Z,94.00
2019-01-25T05:01:10.525Z,93.90
2019-01-25T05:03:58.310Z,94.10
2019-01-25T05:06:45.997Z,94.10
2019-01-25T05:09:38.738Z,94.60
2019-01-25T05:12:26.801Z,94.20
2019-01-25T05:15:14.705Z,94.40
2019-01-25T05:18:02.721Z,94.50
2019-01-25T05:20:50.839Z,94.80
2019-01-25T05:23:38.737Z,94.20
2019-01-25T05:26:26.545Z,94.30
2019-01-25T05:29:14.062Z,94.10
2019-01-25T05:32:05.640Z,94.20
2019-01-25T05:34:53.993Z,94.60
2019-01-25T05:37:42.044Z,94.60
2019-01-25T05:40:30.153Z,94.30
2019-01-25T05:43:18.105Z,93.70
2019-01-25T05:46:05.807Z,94.30
2019-01-25T05:48:54.289Z,94.00
2019-01-25T05:51:42.054Z,93.90
2019-01-25T05:54:30.173Z,94.20
2019-01-25T05:57:18.275Z,93.90
2019-01-25T06:00:10.234Z,93.90
2019-01-25T06:03:05.848Z,93.70
2019-01-25T06:06:05.676Z,94.00
2019-01-25T06:08:54.106Z,94.80
2019-01-25T06:11:41.639Z,94.00
2019-01-25T06:14:29.131Z,94.00
2019-01-25T06:17:17.094Z,94.10
2019-01-25T06:20:06.117Z,94.20
2019-01-25T06:22:56.332Z,94.10
2019-01-25T06:25:45.506Z,93.90
2019-01-25T06:28:33.538Z,94.30
2019-01-25T06:31:21.754Z,94.50
2019-01-25T06:34:09.733Z,94.20
2019-01-25T06:36:57.822Z,94.20
2019-01-25T06:39:45.785Z,94.10
2019-01-25T06:42:33.405Z,94.10
2019-01-25T06:45:21.716Z,94.30
2019-01-25T06:48:09.813Z,94.30
2019-01-25T06:50:57.613Z,94.10
2019-01-25T06:53:45.556Z,94.40
2019-01-25T06:56:33.670Z,94.20
2019-01-25T06:59:29.668Z,95.00
2019-01-25T07:02:21.931Z,94.80
2019-01-25T07:05:10.094Z,94.50
2019-01-25T07:07:57.697Z,94.60
2019-01-25T07:10:45.999Z,94.70
2019-01-25T07:13:33.476Z,94.90
2019-01-25T07:16:21.679Z,94.70
2019-01-25T07:19:09.179Z,94.80
2019-01-25T07:21:57.453Z,95.10
2019-01-25T07:24:46.789Z,94.90
2019-01-25T07:27:35.461Z,94.70
2019-01-25T07:30:23.239Z,94.60
2019-01-25T07:33:10.901Z,94.80
2019-01-25T07:35:58.795Z,95.40
2019-01-25T07:38:46.272Z,95.10
2019-01-25T07:41:33.989Z,95.50
2019-01-25T07:44:22.202Z,95.00
2019-01-25T07:47:10.227Z,95.10
2019-01-25T07:49:57.820Z,95.10
2019-01-25T07:52:45.736Z,94.90
2019-01-25T07:55:33.701Z,95.40
2019-01-25T07:58:20.923Z,95.30
2019-01-25T08:01:09.163Z,95.30
2019-01-25T08:03:56.534Z,95.90
2019-01-25T08:06:43.895Z,95.80
2019-01-25T08:09:31.666Z,95.80
2019-01-25T08:12:19.303Z,95.50
2019-01-25T08:15:09.541Z,95.70
2019-01-25T08:17:57.018Z,95.10
2019-01-25T08:20:45.358Z,95.20
2019-01-25T08:23:33.492Z,95.10
2019-01-25T08:26:21.417Z,95.30
2019-01-25T08:29:09.321Z,95.10
2019-01-25T08:31:57.050Z,95.00
2019-01-25T08:34:45.618Z,95.30
2019-01-25T08:37:33.331Z,95.70
2019-01-25T08:40:21.542Z,95.20
2019-01-25T08:43:09.810Z,95.30
2019-01-25T08:45:58.022Z,95.30
2019-01-25T08:48:45.893Z,95.50
2019-01-25T08:51:33.721Z,95.70
2019-01-25T08:54:21.855Z,95.20
2019-01-25T08:57:10.244Z,95.00
2019-01-25T08:59:57.673Z,94.20
2019-01-25T09:02:45.683Z,94.70
2019-01-25T09:05:33.419Z,94.40
2019-01-25T09:08:21.113Z,94.60
2019-01-25T09:11:08.721Z,94.20
2019-01-25T09:13:56.684Z,94.30
2019-01-25T09:16:44.666Z,94.60
2019-01-25T09:19:32.944Z,94.20
2019-01-25T09:22:20.508Z,93.60
2019-01-25T09:25:08.624Z,93.70
2019-01-25T09:27:56.088Z,93.80
2019-01-25T09:30:44.136Z,93.10
2019-01-25T09:33:31.748Z,93.80
2019-01-25T09:36:19.680Z,93.80
2019-01-25T09:39:09.480Z,93.50
2019-01-25T09:41:57.420Z,94.10
2019-01-25T09:44:45.356Z,94.60
2019-01-25T09:47:33.438Z,94.40
2019-01-25T09:50:21.293Z,94.60
2019-01-25T09:53:09.110Z,93.50
2019-01-25T09:55:57.070Z,93.10
2019-01-25T09:58:46.544Z,93.70
2019-01-25T10:01:34.601Z,93.20
2019-01-25T10:04:22.321Z,93.60
2019-01-25T10:07:10.835Z,93.10
2019-01-25T10:09:58.801Z,93.60
2019-01-25T10:12:46.996Z,93.50
2019-01-25T10:15:34.734Z,93.40
2019-01-25T10:18:24.813Z,93.60
2019-01-25T10:21:12.503Z,93.70
2019-01-25T10:24:00.298Z,93.40
2019-01-25T10:26:47.847Z,92.20
2019-01-25T10:29:36.480Z,92.00
2019-01-25T10:32:24.332Z,90.30
2019-01-25T10:35:12.412Z,90.30
2019-01-25T10:38:00.461Z,89.80
2019-01-25T10:40:48.789Z,89.10
2019-01-25T10:43:36.811Z,88.00
2019-01-25T10:46:24.648Z,88.70
2019-01-25T10:49:12.564Z,89.20
2019-01-25T10:52:00.768Z,87.60
2019-01-25T10:54:48.751Z,87.30
2019-01-25T10:57:37.309Z,88.50
2019-01-25T11:00:25.247Z,86.60
2019-01-25T11:03:13.020Z,88.30
2019-01-25T11:06:00.427Z,87.70
2019-01-25T11:08:48.330Z,87.80
2019-01-25T11:11:36.051Z,86.40
2019-01-25T11:14:24.044Z,86.50
2019-01-25T11:17:12.198Z,86.60
2019-01-25T11:20:00.382Z,85.30
2019-01-25T11:22:48.109Z,86.60
2019-01-25T11:25:37.918Z,85.40
2019-01-25T11:28:25.848Z,86.60
2019-01-25T11:31:13.439Z,85.40
2019-01-25T11:34:00.784Z,82.80
2019-01-25T11:36:48.852Z,84.00
2019-01-25T11:39:36.574Z,83.00
2019-01-25T11:42:24.254Z,83.50
2019-01-25T11:45:12.204Z,83.10
2019-01-25T11:47:59.961Z,81.00
2019-01-25T11:50:47.735Z,80.20
2019-01-25T11:53:35.933Z,82.00
2019-01-25T11:56:23.604Z,82.60
2019-01-25T11:59:11.633Z,81.00
2019-01-25T12:01:59.236Z,82.40
2019-01-25T12:04:47.038Z,80.00
2019-01-25T12:07:34.757Z,79.00
2019-01-25T12:10:24.717Z,80.40
2019-01-25T12:13:16.265Z,79.40
2019-01-25T12:16:01.850Z,78.60
2019-01-25T12:18:49.190Z,77.30
2019-01-25T12:21:36.768Z,78.50
2019-01-25T12:24:24.454Z,77.30
2019-01-25T12:27:12.304Z,75.60
2019-01-25T12:30:00.350Z,74.80
2019-01-25T12:32:48.372Z,75.60
2019-01-25T12:35:38.725Z,76.20
2019-01-25T12:38:26.233Z,74.60
2019-01-25T12:41:13.661Z,73.60
2019-01-25T12:44:01.508Z,73.60
2019-01-25T12:46:49.233Z,73.00
2019-01-25T12:49:36.769Z,70.70
2019-01-25T12:52:24.792Z,70.70
2019-01-25T12:55:12.494Z,71.10
2019-01-25T12:58:00.285Z,72.70
2019-01-25T13:00:49.964Z,73.50
2019-01-25T13:03:37.637Z,72.30
2019-01-25T13:06:25.322Z,73.70
2019-01-25T13:09:12.973Z,74.60
2019-01-25T13:12:00.930Z,69.80
2019-01-25T13:14:48.739Z,72.20
2019-01-25T13:17:36.616Z,72.90
2019-01-25T13:20:26.099Z,72.80
2019-01-25T13:23:13.730Z,71.20
2019-01-25T13:26:01.648Z,70.40
2019-01-25T13:28:49.583Z,69.60
2019-01-25T13:31:37.958Z,67.90
2019-01-25T13:34:26.389Z,67.50
2019-01-25T13:37:14.186Z,68.90
2019-01-25T13:40:01.665Z,71.20
2019-01-25T13:42:49.905Z,70.20
2019-01-25T13:45:37.813Z,68.90
2019-01-25T13:48:25.845Z,67.80
2019-01-25T13:51:13.556Z,68.40
2019-01-25T13:54:00.979Z,68.40
2019-01-25T13:56:48.620Z,68.80
2019-01-25T13:59:36.513Z,70.10
2019-01-25T14:02:24.240Z,69.20
2019-01-25T14:05:12.943Z,70.00
2019-01-25T14:08:00.515Z,70.90
2019-01-25T14:10:48.182Z,68.30
2019-01-25T14:13:35.747Z,68.00
2019-01-25T14:16:23.850Z,70.30
2019-01-25T14:19:11.524Z,68.70
2019-01-25T14:21:59.258Z,70.00
2019-01-25T14:24:46.741Z,70.50
2019-01-25T14:27:34.201Z,70.70
2019-01-25T14:30:25.042Z,71.30
2019-01-25T14:33:12.992Z,72.30
2019-01-25T14:36:01.292Z,71.00
2019-01-25T14:38:48.803Z,70.20
2019-01-25T14:41:36.601Z,70.50
2019-01-25T14:44:24.653Z,71.10
2019-01-25T14:47:12.288Z,71.40
2019-01-25T14:50:00.288Z,71.40
2019-01-25T14:52:48.602Z,71.40
2019-01-25T14:55:36.342Z,72.80
2019-01-25T14:58:24.305Z,71.20
2019-01-25T15:01:14.341Z,70.90
2019-01-25T15:04:02.378Z,70.00
2019-01-25T15:06:50.296Z,69.50
2019-01-25T15:09:38.148Z,70.00
2019-01-25T15:12:25.913Z,71.80
2019-01-25T15:15:14.037Z,71.20
2019-01-25T15:18:01.732Z,70.70
2019-01-25T15:20:49.181Z,70.70
2019-01-25T15:23:37.283Z,71.00
2019-01-25T15:26:25.345Z,71.70
2019-01-25T15:29:13.130Z,71.10
2019-01-25T15:32:01.217Z,71.70
2019-01-25T15:34:48.876Z,71.30
2019-01-25T15:37:36.742Z,71.60
2019-01-25T15:40:24.448Z,72.50
2019-01-25T15:43:12.121Z,73.80
2019-01-25T15:45:59.757Z,73.10
2019-01-25T15:48:47.642Z,73.30
2019-01-25T15:51:35.695Z,73.20
2019-01-25T15:54:23.199Z,73.20
2019-01-25T15:57:10.963Z,74.10
2019-01-25T15:59:58.614Z,74.70
2019-01-25T16:02:46.753Z,74.60
2019-01-25T16:05:34.141Z,74.90
2019-01-25T16:08:21.615Z,75.00
2019-01-25T16:11:09.536Z,76.10
2019-01-25T16:13:57.508Z,76.10
2019-01-25T16:16:45.513Z,76.60
2019-01-25T16:19:33.053Z,76.50
2019-01-25T16:22:20.651Z,76.50
2019-01-25T16:25:11.041Z,77.20
2019-01-25T16:27:59.100Z,77.70
2019-01-25T16:30:47.669Z,78.00
2019-01-25T16:33:35.670Z,78.70
2019-01-25T16:36:23.412Z,80.60
2019-01-25T16:39:11.349Z,80.80
2019-01-25T16:41:59.506Z,81.00
2019-01-25T16:44:47.058Z,81.30
2019-01-25T16:47:34.766Z,80.60
2019-01-25T16:50:23.925Z,80.80
2019-01-25T16:53:13.334Z,81.20
2019-01-25T16:56:00.949Z,81.40
2019-01-25T16:58:48.658Z,81.80
2019-01-25T17:01:37.082Z,81.30
2019-01-25T17:04:24.541Z,80.80
2019-01-25T17:07:12.689Z,81.60
2019-01-25T17:10:00.612Z,80.50
2019-01-25T17:12:48.348Z,81.60
2019-01-25T17:15:36.563Z,81.70
2019-01-25T17:18:24.945Z,82.50
2019-01-25T17:21:12.657Z,82.60
2019-01-25T17:24:00.225Z,81.90
2019-01-25T17:26:48.189Z,83.00
2019-01-25T17:29:36.327Z,85.50
2019-01-25T17:32:24.698Z,85.40
2019-01-25T17:35:12.535Z,85.50
2019-01-25T17:38:00.874Z,86.30
2019-01-25T17:40:48.698Z,86.00
2019-01-25T17:43:37.011Z,85.70
2019-01-25T17:46:28.390Z,87.00
2019-01-25T17:49:16.293Z,86.30
2019-01-25T17:52:04.116Z,85.80
2019-01-25T17:54:52.409Z,86.30
2019-01-25T17:57:40.302Z,86.40
2019-01-25T18:00:51.717Z,86.10
2019-01-25T18:03:39.396Z,87.20
2019-01-25T18:06:27.371Z,86.80
2019-01-25T18:09:15.372Z,86.60
2019-01-25T18:12:03.904Z,86.30
2019-01-25T18:14:51.974Z,86.70
2019-01-25T18:17:39.599Z,87.00
2019-01-25T18:20:27.268Z,86.40
2019-01-25T18:23:15.453Z,86.50
2019-01-25T18:26:15.609Z,86.80
2019-01-25T18:29:08.049Z,87.70
2019-01-25T18:31:55.704Z,87.50
2019-01-25T18:34:43.337Z,88.00
2019-01-25T18:37:31.074Z,88.20
2019-01-25T18:40:18.749Z,88.90
2019-01-25T18:43:06.835Z,88.70
2019-01-25T18:45:54.605Z,89.40
2019-01-25T18:48:42.620Z,89.70
2019-01-25T18:51:30.671Z,89.70
2019-01-25T18:54:18.648Z,89.70
2019-01-25T18:57:07.452Z,88.90
2019-01-25T18:59:54.889Z,89.40
2019-01-25T19:02:43.044Z,89.50
2019-01-25T19:05:30.878Z,89.40
2019-01-25T19:08:21.273Z,89.80
2019-01-25T19:11:10.669Z,89.80
2019-01-25T19:13:58.245Z,90.00
2019-01-25T19:16:48.923Z,89.80
2019-01-25T19:19:36.573Z,90.00
2019-01-25T19:22:26.947Z,89.90
2019-01-25T19:25:14.954Z,89.90
2019-01-25T19:28:02.433Z,90.10
2019-01-25T19:30:50.468Z,90.00
2019-01-25T19:33:38.237Z,90.40
2019-01-25T19:36:26.569Z,90.40
2019-01-25T19:39:15.568Z,90.80
2019-01-25T19:42:02.980Z,90.90
2019-01-25T19:44:50.429Z,90.50
2019-01-25T19:47:38.276Z,90.60
2019-01-25T19:50:26.296Z,90.80
2019-01-25T19:53:13.818Z,90.80
2019-01-25T19:56:01.557Z,90.70
2019-01-25T19:58:49.428Z,90.70
2019-01-25T20:01:37.135Z,90.80
2019-01-25T20:04:24.836Z,90.70
2019-01-25T20:07:12.636Z,90.70
2019-01-25T20:10:00.332Z,90.80
2019-01-25T20:12:48.161Z,91.00
2019-01-25T20:15:35.829Z,90.60
2019-01-25T20:18:23.770Z,90.60
2019-01-25T20:21:11.376Z,90.80
2019-01-25T20:23:59.092Z,90.80
2019-01-25T20:26:47.129Z,90.80
2019-01-25T20:29:35.021Z,91.00
2019-01-25T20:32:22.549Z,90.90
2019-01-25T20:35:12.381Z,91.00
2019-01-25T20:38:01.072Z,91.20
2019-01-25T20:40:48.428Z,91.20
2019-01-25T20:43:36.437Z,91.40
2019-01-25T20:46:24.104Z,91.70
2019-01-25T20:49:11.882Z,91.80
2019-01-25T20:51:59.577Z,91.70
2019-01-25T20:54:47.302Z,91.50
2019-01-25T20:57:34.945Z,91.40
2019-01-25T21:00:30.679Z,91.30
2019-01-25T21:03:18.367Z,92.10
2019-01-25T21:06:06.169Z,92.00
2019-01-25T21:08:54.001Z,92.20
2019-01-25T21:11:41.672Z,92.20
2019-01-25T21:14:29.416Z,92.40
2019-01-25T21:17:16.916Z,92.30
2019-01-25T21:20:08.044Z,92.20
2019-01-25T21:22:55.811Z,92.00
2019-01-25T21:25:43.808Z,92.40
2019-01-25T21:28:31.785Z,92.70
2019-01-25T21:31:19.728Z,92.70
2019-01-25T21:34:08.007Z,93.00
2019-01-25T21:36:55.639Z,93.10
2019-01-25T21:39:43.580Z,92.70
2019-01-25T21:42:31.723Z,92.80
2019-01-25T21:45:21.175Z,92.70
2019-01-25T21:48:14.662Z,92.90
2019-01-25T21:51:02.634Z,93.10
2019-01-25T21:53:50.774Z,92.90
2019-01-25T21:56:38.433Z,92.70
2019-01-25T21:59:26.247Z,92.90
2019-01-25T22:02:14.058Z,93.10
2019-01-25T22:05:02.090Z,93.40
2019-01-25T22:07:50.003Z,92.80
2019-01-25T22:10:41.080Z,92.90
2019-01-25T22:13:28.965Z,93.40
2019-01-25T22:16:16.696Z,93.00
2019-01-25T22:19:04.295Z,92.90
2019-01-25T22:21:51.937Z,92.80
2019-01-25T22:24:40.109Z,92.60
2019-01-25T22:27:28.128Z,92.50
2019-01-25T22:30:18.297Z,92.50
2019-01-25T22:33:06.244Z,92.40
2019-01-25T22:35:54.197Z,92.30
2019-01-25T22:38:41.865Z,92.40
2019-01-25T22:41:29.829Z,92.30
2019-01-25T22:44:17.779Z,92.40
2019-01-25T22:47:05.252Z,92.40
2019-01-25T22:49:53.386Z,92.40
2019-01-25T22:52:41.442Z,92.30
2019-01-25T22:55:29.378Z,92.20
2019-01-25T22:58:17.560Z,92.30
2019-01-25T23:01:32.004Z,92.20
2019-01-25T23:04:42.264Z,92.20
2019-01-25T23:07:31.645Z,92.10
2019-01-25T23:10:21.154Z,91.50
2019-01-25T23:13:09.117Z,91.90
2019-01-25T23:15:56.754Z,92.30
2019-01-25T23:18:44.614Z,92.50
2019-01-25T23:21:32.479Z,92.60
2019-01-25T23:24:20.867Z,92.60
2019-01-25T23:27:09.204Z,92.50
2019-01-25T23:29:56.759Z,93.20
2019-01-25T23:32:45.601Z,92.70
2019-01-25T23:35:33.576Z,92.80
2019-01-25T23:38:21.859Z,92.80
2019-01-25T23:41:09.496Z,92.60
2019-01-25T23:43:57.026Z,92.70
2019-01-25T23:46:44.494Z,92.60
2019-01-25T23:49:32.460Z,92.70
2019-01-25T23:52:20.223Z,92.70
2019-01-25T23:55:09.087Z,92.80
2019-01-25T23:57:57.190Z,93.10
